createdAt,value
2023-03-27T00:04:42.657Z,81.59
2023-03-27T00:09:45.357Z,82.65
2023-03-27T00:14:48.361Z,82.46
2023-03-27T00:19:51.006Z,82.10
2023-03-27T00:24:53.764Z,82.20
2023-03-27T00:29:56.480Z,82.07
2023-03-27T00:34:59.349Z,81.79
2023-03-27T00:40:03.510Z,81.67
2023-03-27T00:45:08.057Z,82.00
2023-03-27T00:50:15.046Z,82.34
2023-03-27T00:55:20.566Z,82.85
2023-03-27T01:00:23.516Z,83.03
2023-03-27T01:05:27.429Z,83.14
2023-03-27T01:10:43.826Z,82.97
2023-03-27T01:16:01.970Z,83.28
2023-03-27T01:21:37.380Z,83.58
2023-03-27T01:27:16.335Z,84.09
2023-03-27T01:32:42.896Z,83.76
2023-03-27T01:37:57.130Z,83.53
2023-03-27T01:43:18.247Z,83.37
2023-03-27T01:48:28.224Z,83.83
2023-03-27T01:53:42.822Z,84.51
2023-03-27T01:58:49.441Z,85.03
2023-03-27T02:03:57.215Z,85.11
2023-03-27T02:09:12.323Z,85.68
2023-03-27T02:14:23.387Z,85.69
2023-03-27T02:19:37.676Z,86.68
2023-03-27T02:24:43.354Z,86.71
2023-03-27T02:30:10.886Z,86.71
2023-03-27T02:35:32.511Z,86.63
2023-03-27T02:41:03.961Z,86.96
2023-03-27T02:46:29.017Z,87.18
2023-03-27T02:51:51.840Z,87.44
2023-03-27T02:57:01.029Z,87.21
2023-03-27T03:02:07.948Z,87.52
2023-03-27T03:07:11.566Z,87.73
2023-03-27T03:12:14.322Z,88.19
2023-03-27T03:17:17.383Z,88.32
2023-03-27T03:22:20.047Z,88.35
2023-03-27T03:27:23.033Z,88.33
2023-03-27T03:32:26.598Z,88.30
2023-03-27T03:37:29.331Z,88.52
2023-03-27T03:42:31.997Z,88.65
2023-03-27T03:47:34.697Z,88.60
2023-03-27T03:52:37.855Z,88.57
2023-03-27T03:57:42.083Z,88.36
2023-03-27T04:02:45.464Z,88.16
2023-03-27T04:07:49.857Z,87.89
2023-03-27T04:12:52.737Z,87.46
2023-03-27T04:17:57.854Z,87.56
2023-03-27T04:23:04.585Z,87.63
2023-03-27T04:28:07.290Z,87.18
2023-03-27T04:33:18.628Z,86.64
2023-03-27T04:38:21.572Z,86.39
2023-03-27T04:43:26.093Z,86.25
2023-03-27T04:48:29.760Z,85.81
2023-03-27T04:53:34.825Z,85.77
2023-03-27T04:58:37.852Z,85.76
2023-03-27T05:03:40.787Z,85.52
2023-03-27T05:08:43.529Z,85.42
2023-03-27T05:13:46.748Z,85.13
2023-03-27T05:18:49.455Z,85.30
2023-03-27T05:23:52.250Z,84.97
2023-03-27T05:28:55.753Z,84.92
2023-03-27T05:33:58.960Z,84.73
2023-03-27T05:39:02.081Z,84.16
2023-03-27T05:44:05.188Z,83.61
2023-03-27T05:49:08.052Z,83.14
2023-03-27T05:54:11.084Z,83.00
2023-03-27T05:59:20.330Z,82.59
2023-03-27T06:04:23.134Z,82.15
2023-03-27T06:09:25.839Z,81.77
2023-03-27T06:14:28.540Z,81.71
2023-03-27T06:19:31.728Z,81.80
2023-03-27T06:24:34.970Z,81.10
2023-03-27T06:29:37.761Z,80.49
2023-03-27T06:34:40.416Z,80.20
2023-03-27T06:39:44.342Z,80.56
2023-03-27T06:44:47.594Z,81.02
2023-03-27T06:49:50.781Z,80.92
2023-03-27T06:54:53.542Z,80.97
2023-03-27T06:59:56.556Z,81.32
2023-03-27T07:05:05.226Z,81.14
2023-03-27T07:10:09.872Z,81.29
2023-03-27T07:15:12.938Z,81.83
2023-03-27T07:20:15.818Z,81.86
2023-03-27T07:25:19.582Z,81.13
2023-03-27T07:30:23.018Z,81.47
2023-03-27T07:35:26.592Z,81.81
2023-03-27T07:40:38.765Z,81.85
2023-03-27T07:45:43.071Z,81.29
2023-03-27T07:50:46.641Z,80.30
2023-03-27T07:55:52.234Z,79.57
2023-03-27T08:01:02.318Z,78.75
2023-03-27T08:06:08.562Z,77.52
2023-03-27T08:11:23.083Z,77.39
2023-03-27T08:16:32.681Z,76.49
2023-03-27T08:21:35.465Z,76.46
2023-03-27T08:26:38.229Z,75.59
2023-03-27T08:31:41.123Z,74.08
2023-03-27T08:36:44.016Z,74.64
2023-03-27T08:41:55.352Z,74.65
2023-03-27T08:47:16.032Z,74.21
2023-03-27T08:52:24.860Z,71.51
2023-03-27T08:57:28.519Z,69.05
2023-03-27T09:02:48.729Z,70.11
2023-03-27T09:08:05.220Z,69.98
2023-03-27T09:13:29.091Z,68.27
2023-03-27T09:18:58.795Z,65.31
2023-03-27T09:24:08.163Z,65.30
2023-03-27T09:29:25.005Z,66.26
2023-03-27T09:34:32.813Z,66.03
2023-03-27T09:39:41.956Z,65.03
2023-03-27T09:44:50.415Z,62.13
2023-03-27T09:49:57.667Z,62.66
2023-03-27T09:55:00.699Z,63.18
2023-03-27T10:00:27.478Z,63.66
2023-03-27T10:05:31.814Z,66.59
2023-03-27T10:10:37.812Z,69.55
2023-03-27T10:15:41.199Z,72.28
2023-03-27T10:20:51.562Z,74.29
2023-03-27T10:26:00.060Z,75.55
2023-03-27T10:31:11.036Z,76.32
2023-03-27T10:36:13.933Z,76.87
2023-03-27T10:41:28.723Z,77.18
2023-03-27T10:46:32.780Z,77.10
2023-03-27T10:51:53.109Z,76.95
2023-03-27T10:57:03.384Z,77.66
2023-03-27T11:02:18.270Z,78.36
2023-03-27T11:07:29.404Z,79.58
2023-03-27T11:12:36.394Z,78.62
2023-03-27T11:17:56.248Z,78.04
2023-03-27T11:23:12.075Z,78.51
2023-03-27T11:28:52.415Z,79.18
2023-03-27T11:34:34.696Z,79.50
2023-03-27T11:39:49.788Z,77.77
2023-03-27T11:44:53.404Z,77.70
2023-03-27T11:50:09.062Z,78.24
2023-03-27T11:55:20.869Z,78.68
2023-03-27T12:00:33.097Z,78.91
2023-03-27T12:06:07.041Z,78.56
2023-03-27T12:11:12.359Z,78.94
2023-03-27T12:16:37.187Z,78.15
2023-03-27T12:21:54.096Z,77.12
2023-03-27T12:27:16.291Z,76.78
2023-03-27T12:32:47.332Z,75.05
2023-03-27T12:38:03.312Z,73.41
2023-03-27T12:43:19.916Z,73.79
2023-03-27T12:48:22.701Z,73.67
2023-03-27T12:53:25.579Z,72.11
2023-03-27T12:58:34.542Z,71.80
2023-03-27T13:03:56.675Z,69.29
2023-03-27T13:09:22.374Z,69.74
2023-03-27T13:15:22.742Z,68.39
2023-03-27T13:20:46.551Z,67.63
2023-03-27T13:26:22.720Z,67.49
2023-03-27T13:31:44.777Z,67.41
2023-03-27T13:36:49.964Z,67.64
2023-03-27T13:42:17.489Z,67.27
2023-03-27T13:47:33.666Z,65.57
2023-03-27T13:53:07.828Z,64.72
2023-03-27T13:58:25.898Z,63.69
2023-03-27T14:03:37.804Z,65.71
2023-03-27T14:08:56.133Z,65.40
2023-03-27T14:14:22.321Z,64.14
2023-03-27T14:19:26.574Z,62.37
2023-03-27T14:24:40.132Z,57.16
2023-03-27T14:29:44.453Z,54.79
2023-03-27T14:34:54.469Z,54.63
2023-03-27T14:40:00.722Z,57.30
2023-03-27T14:45:34.588Z,58.17
2023-03-27T14:50:38.433Z,57.41
2023-03-27T14:55:42.672Z,51.66
2023-03-27T15:00:51.533Z,46.11
2023-03-27T15:06:01.255Z,46.02
2023-03-27T15:11:11.221Z,48.14
2023-03-27T15:16:22.406Z,50.35
2023-03-27T15:21:39.176Z,52.83
2023-03-27T15:26:42.471Z,54.91
2023-03-27T15:31:49.584Z,56.14
2023-03-27T15:37:00.614Z,57.09
2023-03-27T15:42:06.753Z,57.57
2023-03-27T15:47:30.973Z,57.83
2023-03-27T15:52:34.194Z,58.26
2023-03-27T15:57:36.997Z,58.82
2023-03-27T16:02:40.740Z,58.82
2023-03-27T16:07:47.296Z,58.47
2023-03-27T16:13:02.062Z,53.45
2023-03-27T16:18:27.881Z,50.77
2023-03-27T16:23:30.824Z,51.60
2023-03-27T16:28:34.570Z,52.28
2023-03-27T16:33:43.076Z,53.06
2023-03-27T16:38:46.752Z,52.97
2023-03-27T16:43:49.986Z,52.38
2023-03-27T16:48:53.931Z,53.10
2023-03-27T16:53:57.435Z,52.61
2023-03-27T16:59:00.163Z,52.76
2023-03-27T17:04:03.054Z,53.20
2023-03-27T17:09:08.011Z,53.93
2023-03-27T17:14:10.845Z,53.90
2023-03-27T17:19:13.581Z,54.35
2023-03-27T17:24:17.537Z,54.88
2023-03-27T17:29:20.352Z,54.91
2023-03-27T17:34:23.366Z,55.57
2023-03-27T17:39:27.098Z,56.01
2023-03-27T17:44:29.784Z,56.08
2023-03-27T17:49:34.541Z,56.98
2023-03-27T17:54:37.838Z,57.14
2023-03-27T17:59:40.598Z,57.45
2023-03-27T18:04:43.508Z,57.91
2023-03-27T18:09:46.615Z,58.05
2023-03-27T18:14:49.341Z,58.36
2023-03-27T18:19:52.248Z,58.30
2023-03-27T18:24:54.977Z,58.64
2023-03-27T18:29:57.805Z,59.06
2023-03-27T18:35:01.846Z,59.27
2023-03-27T18:40:09.548Z,59.72
2023-03-27T18:45:14.562Z,60.28
2023-03-27T18:50:18.209Z,60.76
2023-03-27T18:55:21.149Z,61.86
2023-03-27T19:00:24.249Z,62.53
2023-03-27T19:05:28.634Z,62.84
2023-03-27T19:10:34.999Z,63.52
2023-03-27T19:15:39.310Z,63.72
2023-03-27T19:20:42.349Z,63.67
2023-03-27T19:25:49.872Z,63.71
2023-03-27T19:30:54.462Z,63.66
2023-03-27T19:36:00.260Z,63.82
2023-03-27T19:41:04.691Z,63.47
2023-03-27T19:46:16.506Z,63.60
2023-03-27T19:51:19.511Z,63.62
2023-03-27T19:56:22.538Z,63.73
2023-03-27T20:01:28.463Z,63.32
2023-03-27T20:06:31.373Z,63.47
2023-03-27T20:11:34.210Z,64.37
2023-03-27T20:16:38.681Z,64.52
2023-03-27T20:21:42.595Z,64.89
2023-03-27T20:26:48.497Z,65.79
2023-03-27T20:31:51.652Z,66.36
2023-03-27T20:36:54.835Z,66.41
2023-03-27T20:41:59.300Z,66.16
2023-03-27T20:47:03.641Z,66.05
2023-03-27T20:52:07.720Z,66.24
2023-03-27T20:57:11.362Z,66.45
2023-03-27T21:02:19.474Z,66.62
2023-03-27T21:07:22.704Z,67.39
2023-03-27T21:12:25.934Z,67.18
2023-03-27T21:17:28.749Z,67.64
2023-03-27T21:22:31.985Z,66.87
2023-03-27T21:27:34.696Z,67.42
2023-03-27T21:32:37.485Z,67.34
2023-03-27T21:37:40.436Z,67.37
2023-03-27T21:42:43.156Z,67.89
2023-03-27T21:47:47.768Z,68.27
2023-03-27T21:52:51.058Z,68.18
2023-03-27T21:57:54.223Z,68.67
2023-03-27T22:02:57.254Z,68.37
2023-03-27T22:08:00.197Z,68.25
2023-03-27T22:13:04.302Z,68.47
2023-03-27T22:18:07.676Z,68.53
2023-03-27T22:23:10.568Z,68.82
2023-03-27T22:28:14.490Z,69.04
2023-03-27T22:33:17.255Z,68.96
2023-03-27T22:38:19.990Z,68.54
2023-03-27T22:43:23.347Z,68.70
2023-03-27T22:48:26.554Z,68.87
2023-03-27T22:53:31.971Z,68.90
2023-03-27T22:58:34.868Z,68.95
2023-03-27T23:03:38.446Z,69.24
2023-03-27T23:08:41.272Z,69.35
2023-03-27T23:13:44.237Z,70.35
2023-03-27T23:18:47.030Z,69.95
2023-03-27T23:23:49.914Z,69.63
2023-03-27T23:28:52.830Z,69.80
2023-03-27T23:33:55.607Z,69.46
2023-03-27T23:38:58.394Z,70.22
2023-03-27T23:44:01.129Z,70.83
2023-03-27T23:49:03.928Z,70.45
2023-03-27T23:54:06.747Z,71.04
2023-03-27T23:59:13.013Z,71.11
